createdAt,value
2022-07-30T00:00:50.791Z,12.66
2022-07-30T00:03:17.943Z,12.66
2022-07-30T00:05:45.114Z,12.59
2022-07-30T00:08:12.347Z,12.53
2022-07-30T00:10:39.525Z,12.51
2022-07-30T00:13:07.890Z,12.51
2022-07-30T00:15:34.949Z,12.49
2022-07-30T00:18:02.148Z,12.39
2022-07-30T00:20:29.609Z,12.44
2022-07-30T00:22:56.984Z,12.41
2022-07-30T00:25:25.013Z,12.38
2022-07-30T00:27:52.199Z,12.24
2022-07-30T00:30:19.229Z,12.27
2022-07-30T00:32:46.284Z,12.13
2022-07-30T00:35:13.899Z,12.02
2022-07-30T00:37:40.859Z,12.19
2022-07-30T00:40:09.213Z,12.11
2022-07-30T00:42:45.030Z,12.10
2022-07-30T00:45:13.656Z,12.08
2022-07-30T00:47:41.297Z,12.07
2022-07-30T00:50:11.146Z,12.02
2022-07-30T00:52:38.825Z,12.04
2022-07-30T00:55:07.718Z,11.81
2022-07-30T00:57:34.993Z,12.02
2022-07-30T01:00:02.204Z,12.02
2022-07-30T01:02:29.499Z,11.94
2022-07-30T01:04:56.694Z,11.96
2022-07-30T01:07:27.185Z,11.77
2022-07-30T01:09:54.321Z,11.91
2022-07-30T01:12:25.181Z,11.89
2022-07-30T01:14:53.291Z,11.86
2022-07-30T01:17:20.494Z,11.85
2022-07-30T01:19:49.900Z,11.78
2022-07-30T01:22:30.228Z,11.78
2022-07-30T01:25:04.171Z,11.75
2022-07-30T01:27:41.769Z,11.63
2022-07-30T01:30:11.446Z,11.67
2022-07-30T01:32:42.158Z,11.65
2022-07-30T01:35:10.860Z,11.55
2022-07-30T01:37:39.397Z,11.62
2022-07-30T01:40:07.525Z,11.61
2022-07-30T01:42:36.333Z,11.58
2022-07-30T01:45:05.805Z,11.54
2022-07-30T01:47:35.373Z,11.51
2022-07-30T01:50:06.636Z,11.46
2022-07-30T01:52:38.609Z,11.38
2022-07-30T01:55:11.584Z,11.13
2022-07-30T01:57:48.307Z,11.38
2022-07-30T02:00:17.439Z,11.32
2022-07-30T02:02:45.619Z,11.29
2022-07-30T02:05:14.097Z,11.26
2022-07-30T02:08:16.087Z,11.20
2022-07-30T02:11:37.412Z,11.07
2022-07-30T02:14:28.807Z,11.13
2022-07-30T02:16:58.638Z,11.10
2022-07-30T02:19:41.727Z,11.11
2022-07-30T02:22:13.178Z,11.00
2022-07-30T02:24:43.749Z,11.01
2022-07-30T02:27:16.669Z,10.95
2022-07-30T02:29:46.137Z,10.98
2022-07-30T02:32:17.990Z,10.92
2022-07-30T02:34:48.446Z,10.89
2022-07-30T02:37:20.407Z,10.93
2022-07-30T02:40:08.979Z,10.65
2022-07-30T02:42:37.269Z,10.54
2022-07-30T02:45:06.255Z,10.87
2022-07-30T02:47:33.684Z,10.85
2022-07-30T02:50:05.353Z,10.83
2022-07-30T02:52:33.378Z,10.84
2022-07-30T02:55:01.351Z,10.64
2022-07-30T02:57:31.209Z,10.79
2022-07-30T03:00:00.002Z,10.81
2022-07-30T03:02:29.279Z,10.81
2022-07-30T03:04:59.101Z,10.80
2022-07-30T03:07:27.815Z,10.79
2022-07-30T03:09:57.204Z,10.78
2022-07-30T03:12:27.367Z,10.80
2022-07-30T03:14:54.616Z,10.81
2022-07-30T03:17:24.137Z,10.59
2022-07-30T03:19:54.952Z,10.84
2022-07-30T03:22:28.872Z,10.78
2022-07-30T03:25:19.325Z,10.67
2022-07-30T03:28:08.661Z,10.75
2022-07-30T03:30:56.867Z,10.78
2022-07-30T03:33:45.285Z,10.91
2022-07-30T03:36:35.733Z,10.94
2022-07-30T03:39:25.097Z,10.97
2022-07-30T03:42:12.981Z,10.94
2022-07-30T03:45:01.042Z,10.98
2022-07-30T03:47:49.104Z,11.02
2022-07-30T03:50:36.494Z,11.06
2022-07-30T03:53:25.528Z,11.08
2022-07-30T03:56:32.741Z,11.11
2022-07-30T03:59:36.066Z,11.15
2022-07-30T04:02:23.823Z,11.20
2022-07-30T04:05:37.431Z,11.24
2022-07-30T04:08:25.188Z,11.26
2022-07-30T04:11:14.373Z,11.26
2022-07-30T04:14:16.598Z,11.38
2022-07-30T04:17:19.737Z,11.43
2022-07-30T04:20:15.321Z,11.25
2022-07-30T04:23:05.621Z,11.55
2022-07-30T04:25:54.357Z,11.61
2022-07-30T04:28:42.192Z,11.65
2022-07-30T04:31:31.284Z,11.64
2022-07-30T04:34:25.508Z,11.78
2022-07-30T04:37:12.795Z,11.83
2022-07-30T04:39:59.911Z,11.82
2022-07-30T04:42:48.621Z,11.90
2022-07-30T04:45:36.788Z,12.06
2022-07-30T04:48:26.682Z,12.09
2022-07-30T04:51:17.536Z,12.21
2022-07-30T04:53:47.267Z,12.31
2022-07-30T04:56:18.456Z,12.40
2022-07-30T04:58:46.019Z,12.26
2022-07-30T05:01:18.749Z,12.60
2022-07-30T05:03:47.768Z,12.66
2022-07-30T05:06:15.598Z,12.74
2022-07-30T05:08:42.951Z,12.79
2022-07-30T05:11:13.287Z,12.95
2022-07-30T05:13:46.185Z,12.97
2022-07-30T05:16:15.968Z,13.17
2022-07-30T05:18:43.199Z,13.25
2022-07-30T05:21:10.993Z,13.21
2022-07-30T05:23:50.233Z,13.45
2022-07-30T05:26:33.097Z,13.55
2022-07-30T05:29:00.447Z,13.60
2022-07-30T05:31:44.651Z,13.73
2022-07-30T05:34:12.549Z,13.82
2022-07-30T05:36:45.286Z,13.65
2022-07-30T05:39:14.701Z,13.98
2022-07-30T05:41:54.291Z,14.07
2022-07-30T05:44:36.597Z,14.16
2022-07-30T05:47:03.953Z,14.23
2022-07-30T05:49:31.360Z,14.18
2022-07-30T05:52:06.515Z,14.37
2022-07-30T05:54:33.765Z,14.31
2022-07-30T05:57:06.634Z,14.49
2022-07-30T05:59:37.606Z,14.56
2022-07-30T06:02:09.226Z,14.65
2022-07-30T06:05:03.205Z,14.74
2022-07-30T06:07:31.143Z,14.85
2022-07-30T06:10:02.671Z,14.90
2022-07-30T06:12:30.665Z,15.00
2022-07-30T06:14:58.458Z,15.08
2022-07-30T06:17:41.256Z,15.19
2022-07-30T06:20:22.181Z,15.26
2022-07-30T06:23:12.360Z,15.31
2022-07-30T06:26:02.225Z,15.41
2022-07-30T06:28:38.745Z,15.48
2022-07-30T06:31:15.252Z,15.50
2022-07-30T06:33:43.411Z,15.60
2022-07-30T06:36:14.054Z,15.66
2022-07-30T06:39:02.761Z,15.74
2022-07-30T06:41:55.536Z,15.58
2022-07-30T06:44:22.660Z,15.87
2022-07-30T06:47:12.725Z,15.89
2022-07-30T06:50:01.905Z,16.00
2022-07-30T06:52:50.806Z,16.07
2022-07-30T06:55:38.346Z,16.13
2022-07-30T06:58:25.851Z,16.05
2022-07-30T07:01:48.422Z,16.27
2022-07-30T07:04:35.448Z,16.13
2022-07-30T07:07:40.271Z,16.43
2022-07-30T07:10:29.184Z,16.39
2022-07-30T07:13:36.805Z,16.53
2022-07-30T07:16:27.637Z,16.45
2022-07-30T07:19:16.005Z,16.66
2022-07-30T07:22:23.569Z,16.60
2022-07-30T07:25:10.639Z,16.52
2022-07-30T07:28:11.975Z,16.88
2022-07-30T07:31:02.708Z,16.91
2022-07-30T07:33:50.085Z,17.02
2022-07-30T07:36:37.255Z,17.11
2022-07-30T07:39:24.884Z,17.19
2022-07-30T07:42:12.039Z,17.22
2022-07-30T07:45:01.614Z,17.06
2022-07-30T07:48:03.838Z,17.45
2022-07-30T07:51:09.571Z,17.45
2022-07-30T07:54:19.740Z,17.58
2022-07-30T07:57:05.239Z,17.73
2022-07-30T07:59:58.646Z,17.80
2022-07-30T08:02:47.522Z,17.86
2022-07-30T08:05:16.125Z,17.84
2022-07-30T08:08:32.082Z,18.01
2022-07-30T08:11:51.494Z,18.09
2022-07-30T08:14:41.585Z,18.15
2022-07-30T08:17:45.289Z,18.10
2022-07-30T08:20:22.653Z,18.31
2022-07-30T08:22:49.924Z,18.35
2022-07-30T08:25:22.421Z,18.40
2022-07-30T08:27:53.242Z,18.48
2022-07-30T08:30:20.779Z,18.54
2022-07-30T08:32:47.944Z,18.59
2022-07-30T08:35:15.096Z,18.64
2022-07-30T08:37:42.368Z,18.64
2022-07-30T08:40:10.385Z,18.70
2022-07-30T08:42:47.848Z,18.74
2022-07-30T08:45:35.418Z,18.78
2022-07-30T08:48:41.343Z,18.83
2022-07-30T08:51:29.061Z,18.89
2022-07-30T08:54:35.489Z,18.98
2022-07-30T08:57:03.213Z,18.84
2022-07-30T08:59:59.196Z,19.07
2022-07-30T09:02:51.153Z,19.13
2022-07-30T09:05:38.978Z,19.22
2022-07-30T09:08:26.236Z,19.28
2022-07-30T09:11:13.567Z,19.33
2022-07-30T09:14:04.845Z,19.40
2022-07-30T09:16:34.384Z,19.42
2022-07-30T09:19:35.073Z,19.26
2022-07-30T09:22:02.609Z,19.49
2022-07-30T09:24:52.606Z,19.53
2022-07-30T09:27:50.445Z,19.57
2022-07-30T09:30:56.114Z,19.60
2022-07-30T09:33:45.316Z,19.62
2022-07-30T09:36:33.353Z,19.50
2022-07-30T09:39:38.245Z,19.64
2022-07-30T09:42:47.441Z,19.68
2022-07-30T09:45:35.878Z,19.68
2022-07-30T09:48:40.848Z,19.72
2022-07-30T09:51:15.724Z,19.68
2022-07-30T09:53:58.896Z,19.64
2022-07-30T09:56:30.445Z,19.75
2022-07-30T09:58:59.249Z,19.77
2022-07-30T10:01:49.615Z,19.83
2022-07-30T10:04:33.188Z,19.83
2022-07-30T10:07:25.134Z,19.73
2022-07-30T10:09:59.766Z,19.83
2022-07-30T10:12:48.185Z,19.68
2022-07-30T10:15:20.034Z,19.93
2022-07-30T10:18:08.527Z,19.90
2022-07-30T10:20:56.074Z,19.96
2022-07-30T10:23:50.735Z,20.01
2022-07-30T10:26:37.022Z,19.99
2022-07-30T10:29:22.796Z,20.01
2022-07-30T10:32:01.067Z,19.97
2022-07-30T10:34:34.017Z,19.94
2022-07-30T10:37:06.615Z,19.94
2022-07-30T10:40:23.096Z,19.98
2022-07-30T10:43:32.020Z,19.99
2022-07-30T10:46:43.926Z,19.98
2022-07-30T10:49:41.530Z,19.99
2022-07-30T10:52:29.484Z,19.79
2022-07-30T10:55:16.459Z,19.97
2022-07-30T10:58:22.859Z,20.10
2022-07-30T11:01:18.407Z,20.18
2022-07-30T11:04:41.479Z,20.27
2022-07-30T11:07:43.952Z,20.34
2022-07-30T11:10:58.122Z,20.36
2022-07-30T11:14:16.265Z,20.37
2022-07-30T11:17:03.329Z,20.40
2022-07-30T11:19:57.500Z,20.42
2022-07-30T11:23:03.254Z,20.42
2022-07-30T11:25:54.653Z,20.43
2022-07-30T11:28:38.447Z,20.37
2022-07-30T11:31:57.318Z,20.38
2022-07-30T11:34:27.813Z,20.22
2022-07-30T11:37:18.409Z,20.37
2022-07-30T11:39:55.612Z,20.36
2022-07-30T11:42:36.603Z,20.35
2022-07-30T11:45:27.170Z,20.35
2022-07-30T11:47:56.482Z,20.13
2022-07-30T11:50:32.951Z,20.36
2022-07-30T11:53:03.140Z,20.35
2022-07-30T11:55:39.456Z,20.42
2022-07-30T11:58:09.501Z,20.45
2022-07-30T12:00:36.623Z,20.50
2022-07-30T12:03:16.589Z,20.51
2022-07-30T12:05:44.130Z,20.24
2022-07-30T12:08:31.598Z,20.53
2022-07-30T12:11:01.456Z,20.60
2022-07-30T12:13:45.048Z,20.67
2022-07-30T12:16:18.656Z,20.66
2022-07-30T12:18:47.661Z,20.73
2022-07-30T12:21:18.872Z,20.69
2022-07-30T12:23:58.014Z,20.64
2022-07-30T12:26:29.916Z,20.58
2022-07-30T12:28:59.700Z,20.51
2022-07-30T12:31:27.336Z,20.45
2022-07-30T12:33:58.374Z,20.35
2022-07-30T12:36:31.116Z,20.35
2022-07-30T12:38:59.435Z,20.39
2022-07-30T12:41:47.364Z,20.50
2022-07-30T12:44:37.541Z,20.56
2022-07-30T12:47:07.156Z,20.57
2022-07-30T12:49:37.654Z,20.48
2022-07-30T12:52:13.217Z,20.41
2022-07-30T12:54:45.446Z,20.37
2022-07-30T12:57:12.646Z,20.28
2022-07-30T12:59:39.611Z,20.20
2022-07-30T13:02:06.865Z,20.13
2022-07-30T13:04:38.335Z,19.97
2022-07-30T13:07:12.362Z,19.93
2022-07-30T13:10:00.002Z,19.87
2022-07-30T13:12:46.892Z,19.75
2022-07-30T13:15:40.929Z,19.55
2022-07-30T13:18:41.324Z,19.71
2022-07-30T13:21:29.367Z,19.79
2022-07-30T13:23:56.449Z,19.73
2022-07-30T13:26:23.570Z,19.65
2022-07-30T13:28:50.634Z,19.76
2022-07-30T13:31:18.458Z,19.79
2022-07-30T13:33:45.463Z,19.68
2022-07-30T13:36:12.573Z,19.81
2022-07-30T13:38:59.661Z,19.81
2022-07-30T13:41:46.678Z,19.79
2022-07-30T13:44:33.802Z,19.74
2022-07-30T13:47:20.706Z,19.85
2022-07-30T13:50:07.669Z,19.81
2022-07-30T13:52:57.798Z,19.91
2022-07-30T13:55:29.653Z,19.88
2022-07-30T13:57:56.701Z,20.06
2022-07-30T14:00:24.427Z,20.09
2022-07-30T14:02:51.776Z,20.11
2022-07-30T14:05:19.157Z,20.16
2022-07-30T14:07:46.194Z,20.16
2022-07-30T14:10:13.126Z,20.20
2022-07-30T14:12:40.217Z,20.25
2022-07-30T14:15:09.429Z,20.27
2022-07-30T14:17:36.585Z,20.28
2022-07-30T14:20:04.434Z,20.29
2022-07-30T14:22:51.343Z,20.27
2022-07-30T14:25:38.667Z,20.27
2022-07-30T14:28:05.926Z,20.34
2022-07-30T14:30:32.927Z,20.31
2022-07-30T14:33:04.353Z,20.34
2022-07-30T14:35:51.584Z,20.23
2022-07-30T14:38:38.720Z,20.37
2022-07-30T14:41:26.769Z,20.37
2022-07-30T14:44:13.717Z,20.34
2022-07-30T14:47:01.822Z,20.32
2022-07-30T14:49:48.941Z,20.28
2022-07-30T14:52:35.914Z,20.16
2022-07-30T14:55:23.241Z,20.21
2022-07-30T14:58:10.236Z,20.24
2022-07-30T15:00:57.306Z,20.04
2022-07-30T15:03:44.294Z,20.18
2022-07-30T15:06:32.252Z,20.08
2022-07-30T15:09:19.177Z,20.19
2022-07-30T15:12:09.309Z,20.24
2022-07-30T15:14:59.969Z,20.27
2022-07-30T15:17:48.045Z,20.28
2022-07-30T15:20:34.938Z,20.27
2022-07-30T15:23:22.333Z,20.35
2022-07-30T15:25:49.554Z,20.36
2022-07-30T15:28:36.701Z,20.37
2022-07-30T15:31:04.383Z,20.31
2022-07-30T15:33:31.459Z,20.11
2022-07-30T15:36:04.041Z,20.36
2022-07-30T15:38:31.038Z,20.37
2022-07-30T15:40:57.934Z,20.38
2022-07-30T15:43:24.901Z,20.36
2022-07-30T15:45:56.475Z,20.31
2022-07-30T15:48:27.386Z,20.07
2022-07-30T15:51:04.792Z,20.20
2022-07-30T15:53:33.763Z,20.18
2022-07-30T15:56:00.855Z,20.20
2022-07-30T15:58:28.239Z,20.19
2022-07-30T16:00:55.887Z,20.02
2022-07-30T16:03:22.942Z,20.20
2022-07-30T16:05:51.138Z,20.22
2022-07-30T16:08:21.084Z,19.94
2022-07-30T16:10:48.968Z,20.29
2022-07-30T16:13:16.201Z,20.03
2022-07-30T16:15:43.297Z,20.28
2022-07-30T16:18:10.527Z,20.06
2022-07-30T16:20:39.038Z,20.23
2022-07-30T16:23:11.936Z,20.21
2022-07-30T16:25:40.694Z,20.14
2022-07-30T16:28:07.898Z,20.18
2022-07-30T16:30:35.016Z,20.18
2022-07-30T16:33:08.522Z,20.21
2022-07-30T16:35:36.224Z,20.21
2022-07-30T16:38:16.875Z,20.20
2022-07-30T16:40:44.478Z,20.20
2022-07-30T16:43:11.452Z,20.19
2022-07-30T16:45:38.538Z,20.21
2022-07-30T16:48:05.849Z,19.95
2022-07-30T16:50:33.180Z,20.19
2022-07-30T16:53:00.650Z,20.23
2022-07-30T16:55:27.771Z,20.21
2022-07-30T16:57:54.721Z,19.92
2022-07-30T17:00:21.697Z,20.17
2022-07-30T17:02:48.636Z,20.02
2022-07-30T17:05:15.581Z,20.16
2022-07-30T17:07:43.001Z,20.19
2022-07-30T17:10:12.353Z,20.01
2022-07-30T17:12:40.118Z,19.96
2022-07-30T17:15:08.287Z,20.22
2022-07-30T17:17:35.479Z,20.10
2022-07-30T17:20:04.294Z,20.24
2022-07-30T17:22:31.310Z,20.23
2022-07-30T17:24:59.022Z,20.13
2022-07-30T17:27:48.882Z,20.18
2022-07-30T17:30:16.531Z,20.31
2022-07-30T17:33:03.565Z,20.35
2022-07-30T17:35:50.608Z,20.44
2022-07-30T17:38:37.560Z,20.18
2022-07-30T17:41:24.628Z,20.40
2022-07-30T17:44:11.666Z,20.35
2022-07-30T17:46:58.684Z,20.30
2022-07-30T17:49:45.687Z,20.23
2022-07-30T17:52:13.194Z,20.46
2022-07-30T17:54:40.195Z,21.04
2022-07-30T17:57:08.182Z,21.64
2022-07-30T17:59:35.385Z,22.22
2022-07-30T18:02:04.587Z,22.84
2022-07-30T18:04:32.134Z,23.01
2022-07-30T18:06:59.237Z,23.04
2022-07-30T18:09:26.582Z,22.83
2022-07-30T18:11:54.638Z,22.55
2022-07-30T18:14:41.738Z,22.27
2022-07-30T18:17:28.769Z,21.83
2022-07-30T18:20:15.770Z,21.42
2022-07-30T18:23:02.893Z,21.21
2022-07-30T18:25:54.699Z,20.97
2022-07-30T18:28:42.148Z,20.81
2022-07-30T18:31:29.446Z,20.35
2022-07-30T18:34:16.537Z,20.44
2022-07-30T18:37:03.835Z,19.96
2022-07-30T18:39:50.806Z,20.15
2022-07-30T18:42:38.160Z,19.87
2022-07-30T18:45:26.325Z,19.96
2022-07-30T18:48:13.440Z,19.91
2022-07-30T18:51:00.417Z,19.82
2022-07-30T18:53:47.631Z,19.73
2022-07-30T18:56:34.540Z,19.67
2022-07-30T18:59:21.822Z,19.60
2022-07-30T19:02:08.707Z,19.54
2022-07-30T19:04:55.870Z,19.35
2022-07-30T19:07:55.487Z,19.42
2022-07-30T19:10:46.613Z,19.11
2022-07-30T19:13:33.712Z,19.21
2022-07-30T19:16:20.729Z,19.20
2022-07-30T19:19:07.880Z,19.03
2022-07-30T19:21:34.841Z,18.74
2022-07-30T19:24:02.120Z,19.00
2022-07-30T19:26:29.461Z,18.94
2022-07-30T19:28:56.426Z,18.83
2022-07-30T19:31:23.443Z,18.76
2022-07-30T19:33:51.034Z,18.67
2022-07-30T19:36:20.810Z,18.61
2022-07-30T19:38:49.018Z,18.51
2022-07-30T19:41:17.220Z,18.32
2022-07-30T19:43:58.043Z,18.38
2022-07-30T19:46:25.704Z,18.32
2022-07-30T19:48:52.710Z,18.12
2022-07-30T19:51:21.059Z,18.19
2022-07-30T19:53:52.650Z,17.83
2022-07-30T19:56:19.709Z,17.52
2022-07-30T19:58:46.646Z,18.01
2022-07-30T20:01:15.840Z,17.70
2022-07-30T20:03:45.983Z,17.91
2022-07-30T20:06:16.113Z,17.84
2022-07-30T20:08:44.789Z,17.80
2022-07-30T20:11:14.194Z,17.69
2022-07-30T20:13:48.540Z,17.68
2022-07-30T20:16:16.419Z,17.61
2022-07-30T20:18:45.920Z,17.50
2022-07-30T20:21:15.851Z,17.49
2022-07-30T20:23:44.775Z,17.43
2022-07-30T20:26:14.354Z,17.25
2022-07-30T20:28:45.761Z,17.33
2022-07-30T20:31:13.294Z,17.27
2022-07-30T20:33:40.787Z,17.17
2022-07-30T20:36:09.979Z,17.18
2022-07-30T20:38:39.019Z,17.13
2022-07-30T20:41:10.121Z,17.09
2022-07-30T20:43:45.946Z,17.04
2022-07-30T20:46:13.841Z,16.95
2022-07-30T20:48:42.893Z,16.95
2022-07-30T20:51:12.008Z,16.89
2022-07-30T20:53:40.231Z,16.77
2022-07-30T20:56:07.572Z,16.77
2022-07-30T20:58:35.009Z,16.71
2022-07-30T21:01:04.749Z,16.66
2022-07-30T21:03:32.109Z,16.61
2022-07-30T21:05:59.161Z,16.56
2022-07-30T21:08:26.879Z,16.50
2022-07-30T21:10:55.179Z,16.44
2022-07-30T21:13:24.889Z,16.39
2022-07-30T21:16:02.773Z,16.10
2022-07-30T21:18:31.329Z,16.17
2022-07-30T21:20:58.386Z,16.16
2022-07-30T21:23:27.707Z,16.13
2022-07-30T21:26:02.985Z,16.03
2022-07-30T21:31:19.753Z,15.92
2022-07-30T21:34:06.833Z,15.63
2022-07-30T21:36:36.085Z,15.44
2022-07-30T21:39:05.465Z,15.74
2022-07-30T21:41:40.066Z,15.78
2022-07-30T21:44:08.149Z,15.49
2022-07-30T21:46:38.013Z,15.69
2022-07-30T21:49:07.238Z,15.65
2022-07-30T21:51:35.160Z,15.62
2022-07-30T21:54:07.409Z,15.42
2022-07-30T21:56:34.739Z,15.37
2022-07-30T21:59:09.029Z,15.47
2022-07-30T22:01:56.366Z,15.43
2022-07-30T22:04:44.267Z,15.27
2022-07-30T22:07:34.662Z,15.33
2022-07-30T22:10:23.049Z,14.97
2022-07-30T22:13:10.913Z,15.20
2022-07-30T22:16:00.018Z,15.18
2022-07-30T22:18:47.561Z,15.13
2022-07-30T22:21:34.553Z,15.06
2022-07-30T22:24:29.146Z,14.91
2022-07-30T22:27:21.974Z,14.85
2022-07-30T22:30:18.245Z,14.07
2022-07-30T22:33:06.455Z,13.28
2022-07-30T22:35:54.046Z,14.39
2022-07-30T22:38:41.001Z,14.55
2022-07-30T22:41:29.033Z,14.72
2022-07-30T22:44:16.057Z,14.49
2022-07-30T22:47:02.988Z,14.48
2022-07-30T22:49:59.543Z,14.48
2022-07-30T22:52:57.525Z,14.55
2022-07-30T22:55:47.490Z,14.51
2022-07-30T22:58:34.594Z,14.39
2022-07-30T23:01:22.939Z,14.39
2022-07-30T23:04:10.002Z,14.39
2022-07-30T23:06:56.931Z,14.34
2022-07-30T23:09:51.938Z,14.30
2022-07-30T23:12:27.316Z,15.92
2022-07-30T23:12:39.416Z,14.13
2022-07-30T23:15:26.812Z,14.18
2022-07-30T23:18:13.867Z,14.16
2022-07-30T23:21:00.873Z,13.83
2022-07-30T23:23:49.393Z,14.04
2022-07-30T23:26:36.400Z,13.71
2022-07-30T23:29:23.493Z,13.73
2022-07-30T23:32:10.607Z,13.91
2022-07-30T23:34:57.679Z,13.76
2022-07-30T23:37:48.310Z,13.82
2022-07-30T23:40:37.730Z,13.70
2022-07-30T23:43:24.768Z,13.44
2022-07-30T23:46:11.721Z,13.56
2022-07-30T23:48:58.671Z,13.57
2022-07-30T23:51:45.681Z,13.27
2022-07-30T23:54:32.667Z,13.57
2022-07-30T23:57:19.700Z,13.54
